sensor_id;sensor_type;location;lat;lon;timestamp;temperature;humidity
10062;DHT22;5070;52.382;5.270;2023-11-19T00:01:20;20.00;90.80
10062;DHT22;5070;52.382;5.270;2023-11-19T00:03:48;20.00;90.80
10062;DHT22;5070;52.382;5.270;2023-11-19T00:06:18;20.00;90.80
10062;DHT22;5070;52.382;5.270;2023-11-19T00:08:46;20.00;90.80
10062;DHT22;5070;52.382;5.270;2023-11-19T00:11:14;20.00;90.80
10062;DHT22;5070;52.382;5.270;2023-11-19T00:13:42;20.00;90.80
10062;DHT22;5070;52.382;5.270;2023-11-19T00:16:10;20.00;90.80
10062;DHT22;5070;52.382;5.270;2023-11-19T00:18:39;20.00;90.80
10062;DHT22;5070;52.382;5.270;2023-11-19T00:21:07;20.00;90.70
10062;DHT22;5070;52.382;5.270;2023-11-19T00:23:38;20.00;90.70
10062;DHT22;5070;52.382;5.270;2023-11-19T00:26:06;20.00;90.70
10062;DHT22;5070;52.382;5.270;2023-11-19T00:28:36;20.00;90.70
10062;DHT22;5070;52.382;5.270;2023-11-19T00:31:05;20.00;90.70
10062;DHT22;5070;52.382;5.270;2023-11-19T00:33:34;20.00;90.70
10062;DHT22;5070;52.382;5.270;2023-11-19T00:36:14;20.00;90.60
10062;DHT22;5070;52.382;5.270;2023-11-19T00:38:44;19.90;90.60
10062;DHT22;5070;52.382;5.270;2023-11-19T00:41:12;19.90;90.60
10062;DHT22;5070;52.382;5.270;2023-11-19T00:43:42;19.90;90.60
10062;DHT22;5070;52.382;5.270;2023-11-19T00:46:10;19.90;90.60
10062;DHT22;5070;52.382;5.270;2023-11-19T00:48:38;19.90;90.50
10062;DHT22;5070;52.382;5.270;2023-11-19T00:51:11;19.90;90.50
10062;DHT22;5070;52.382;5.270;2023-11-19T00:53:39;19.90;90.50
10062;DHT22;5070;52.382;5.270;2023-11-19T00:56:10;19.90;90.50
10062;DHT22;5070;52.382;5.270;2023-11-19T00:58:39;19.90;90.50
10062;DHT22;5070;52.382;5.270;2023-11-19T01:01:07;19.90;90.50
10062;DHT22;5070;52.382;5.270;2023-11-19T01:03:35;19.90;90.40
10062;DHT22;5070;52.382;5.270;2023-11-19T01:06:06;19.90;90.40
10062;DHT22;5070;52.382;5.270;2023-11-19T01:08:35;19.90;90.40
10062;DHT22;5070;52.382;5.270;2023-11-19T01:11:04;19.90;90.40
10062;DHT22;5070;52.382;5.270;2023-11-19T01:13:36;19.90;90.40
10062;DHT22;5070;52.382;5.270;2023-11-19T01:16:06;19.90;90.40
10062;DHT22;5070;52.382;5.270;2023-11-19T01:18:34;19.80;90.40
10062;DHT22;5070;52.382;5.270;2023-11-19T01:21:03;19.80;90.40
10062;DHT22;5070;52.382;5.270;2023-11-19T01:23:31;19.80;90.40
10062;DHT22;5070;52.382;5.270;2023-11-19T01:26:00;19.90;90.40
10062;DHT22;5070;52.382;5.270;2023-11-19T01:28:29;19.80;90.40
10062;DHT22;5070;52.382;5.270;2023-11-19T01:30:59;19.80;90.30
10062;DHT22;5070;52.382;5.270;2023-11-19T01:33:27;19.80;90.30
10062;DHT22;5070;52.382;5.270;2023-11-19T01:35:55;19.80;90.30
10062;DHT22;5070;52.382;5.270;2023-11-19T01:38:25;19.80;90.30
10062;DHT22;5070;52.382;5.270;2023-11-19T01:40:56;19.80;90.30
10062;DHT22;5070;52.382;5.270;2023-11-19T01:43:34;19.80;90.30
10062;DHT22;5070;52.382;5.270;2023-11-19T01:46:05;19.80;90.30
10062;DHT22;5070;52.382;5.270;2023-11-19T01:48:34;19.80;90.30
10062;DHT22;5070;52.382;5.270;2023-11-19T01:51:04;19.80;90.30
10062;DHT22;5070;52.382;5.270;2023-11-19T01:53:32;19.80;90.30
10062;DHT22;5070;52.382;5.270;2023-11-19T01:56:01;19.80;90.30
10062;DHT22;5070;52.382;5.270;2023-11-19T01:58:30;19.80;90.30
10062;DHT22;5070;52.382;5.270;2023-11-19T02:00:58;19.80;90.30
10062;DHT22;5070;52.382;5.270;2023-11-19T02:03:28;19.80;90.30
10062;DHT22;5070;52.382;5.270;2023-11-19T02:05:56;19.80;90.30
10062;DHT22;5070;52.382;5.270;2023-11-19T02:08:24;19.70;90.20
10062;DHT22;5070;52.382;5.270;2023-11-19T02:10:53;19.70;90.20
10062;DHT22;5070;52.382;5.270;2023-11-19T02:13:23;19.70;90.20
10062;DHT22;5070;52.382;5.270;2023-11-19T02:15:52;19.70;90.20
10062;DHT22;5070;52.382;5.270;2023-11-19T02:18:23;19.70;90.20
10062;DHT22;5070;52.382;5.270;2023-11-19T02:20:56;19.70;90.20
10062;DHT22;5070;52.382;5.270;2023-11-19T02:23:26;19.70;90.20
10062;DHT22;5070;52.382;5.270;2023-11-19T02:26:02;19.70;90.10
10062;DHT22;5070;52.382;5.270;2023-11-19T02:28:33;19.70;90.10
10062;DHT22;5070;52.382;5.270;2023-11-19T02:31:01;19.70;90.10
10062;DHT22;5070;52.382;5.270;2023-11-19T02:33:31;19.70;90.10
10062;DHT22;5070;52.382;5.270;2023-11-19T02:35:59;19.70;90.00
10062;DHT22;5070;52.382;5.270;2023-11-19T02:38:28;19.70;90.00
10062;DHT22;5070;52.382;5.270;2023-11-19T02:40:56;19.70;90.00
10062;DHT22;5070;52.382;5.270;2023-11-19T02:43:24;19.70;90.00
10062;DHT22;5070;52.382;5.270;2023-11-19T02:45:53;19.70;90.00
10062;DHT22;5070;52.382;5.270;2023-11-19T02:48:22;19.70;89.90
10062;DHT22;5070;52.382;5.270;2023-11-19T02:50:50;19.70;89.90
10062;DHT22;5070;52.382;5.270;2023-11-19T02:53:19;19.60;89.70
10062;DHT22;5070;52.382;5.270;2023-11-19T02:55:49;19.60;89.70
10062;DHT22;5070;52.382;5.270;2023-11-19T02:58:17;19.60;89.70
10062;DHT22;5070;52.382;5.270;2023-11-19T03:00:50;19.60;89.60
10062;DHT22;5070;52.382;5.270;2023-11-19T03:03:25;19.60;89.50
10062;DHT22;5070;52.382;5.270;2023-11-19T03:05:57;19.60;89.50
10062;DHT22;5070;52.382;5.270;2023-11-19T03:08:25;19.60;89.50
10062;DHT22;5070;52.382;5.270;2023-11-19T03:10:54;19.60;89.40
10062;DHT22;5070;52.382;5.270;2023-11-19T03:13:22;19.60;89.30
10062;DHT22;5070;52.382;5.270;2023-11-19T03:15:50;19.60;89.30
10062;DHT22;5070;52.382;5.270;2023-11-19T03:18:18;19.60;89.30
10062;DHT22;5070;52.382;5.270;2023-11-19T03:20:47;19.60;89.20
10062;DHT22;5070;52.382;5.270;2023-11-19T03:23:16;19.60;89.20
10062;DHT22;5070;52.382;5.270;2023-11-19T03:25:44;19.60;89.20
10062;DHT22;5070;52.382;5.270;2023-11-19T03:28:12;19.60;89.20
10062;DHT22;5070;52.382;5.270;2023-11-19T03:30:40;19.50;89.00
10062;DHT22;5070;52.382;5.270;2023-11-19T03:33:08;19.60;89.10
10062;DHT22;5070;52.382;5.270;2023-11-19T03:35:36;19.50;88.90
10062;DHT22;5070;52.382;5.270;2023-11-19T03:38:05;19.50;88.80
10062;DHT22;5070;52.382;5.270;2023-11-19T03:40:33;19.50;88.80
10062;DHT22;5070;52.382;5.270;2023-11-19T03:43:02;19.50;88.80
10062;DHT22;5070;52.382;5.270;2023-11-19T03:45:31;19.50;88.70
10062;DHT22;5070;52.382;5.270;2023-11-19T03:47:59;19.50;88.60
10062;DHT22;5070;52.382;5.270;2023-11-19T03:50:27;19.50;88.50
10062;DHT22;5070;52.382;5.270;2023-11-19T03:52:55;19.50;88.50
10062;DHT22;5070;52.382;5.270;2023-11-19T03:55:25;19.50;88.40
10062;DHT22;5070;52.382;5.270;2023-11-19T03:57:53;19.50;88.40
10062;DHT22;5070;52.382;5.270;2023-11-19T04:00:21;19.50;88.30
10062;DHT22;5070;52.382;5.270;2023-11-19T04:02:49;19.50;88.10
10062;DHT22;5070;52.382;5.270;2023-11-19T04:05:17;19.40;88.10
10062;DHT22;5070;52.382;5.270;2023-11-19T04:07:45;19.40;88.20
10062;DHT22;5070;52.382;5.270;2023-11-19T04:10:14;19.50;88.10
10062;DHT22;5070;52.382;5.270;2023-11-19T04:12:45;19.40;88.00
10062;DHT22;5070;52.382;5.270;2023-11-19T04:15:14;19.40;88.00
10062;DHT22;5070;52.382;5.270;2023-11-19T04:17:42;19.40;87.90
10062;DHT22;5070;52.382;5.270;2023-11-19T04:20:10;19.40;87.90
10062;DHT22;5070;52.382;5.270;2023-11-19T04:22:40;19.40;87.90
10062;DHT22;5070;52.382;5.270;2023-11-19T04:25:08;19.40;88.10
10062;DHT22;5070;52.382;5.270;2023-11-19T04:27:37;19.40;88.70
10062;DHT22;5070;52.382;5.270;2023-11-19T04:30:09;19.40;87.80
10062;DHT22;5070;52.382;5.270;2023-11-19T04:32:38;19.40;87.70
10062;DHT22;5070;52.382;5.270;2023-11-19T04:35:07;19.40;87.60
10062;DHT22;5070;52.382;5.270;2023-11-19T04:37:35;19.40;87.40
10062;DHT22;5070;52.382;5.270;2023-11-19T04:40:04;19.40;87.60
10062;DHT22;5070;52.382;5.270;2023-11-19T04:42:33;19.40;87.50
10062;DHT22;5070;52.382;5.270;2023-11-19T04:45:00;19.40;87.40
10062;DHT22;5070;52.382;5.270;2023-11-19T04:47:30;19.40;87.40
10062;DHT22;5070;52.382;5.270;2023-11-19T04:49:58;19.40;87.40
10062;DHT22;5070;52.382;5.270;2023-11-19T04:52:26;19.40;87.40
10062;DHT22;5070;52.382;5.270;2023-11-19T04:54:54;19.40;87.40
10062;DHT22;5070;52.382;5.270;2023-11-19T04:57:22;19.30;87.20
10062;DHT22;5070;52.382;5.270;2023-11-19T04:59:50;19.30;87.20
10062;DHT22;5070;52.382;5.270;2023-11-19T05:02:17;19.40;87.20
10062;DHT22;5070;52.382;5.270;2023-11-19T05:04:47;19.30;86.90
10062;DHT22;5070;52.382;5.270;2023-11-19T05:07:16;19.30;86.80
10062;DHT22;5070;52.382;5.270;2023-11-19T05:09:44;19.30;86.90
10062;DHT22;5070;52.382;5.270;2023-11-19T05:12:12;19.30;86.80
10062;DHT22;5070;52.382;5.270;2023-11-19T05:14:40;19.30;86.70
10062;DHT22;5070;52.382;5.270;2023-11-19T05:17:14;19.30;86.70
10062;DHT22;5070;52.382;5.270;2023-11-19T05:19:46;19.30;86.60
10062;DHT22;5070;52.382;5.270;2023-11-19T05:22:15;19.30;86.60
10062;DHT22;5070;52.382;5.270;2023-11-19T05:24:43;19.30;86.50
10062;DHT22;5070;52.382;5.270;2023-11-19T05:27:11;19.30;86.40
10062;DHT22;5070;52.382;5.270;2023-11-19T05:29:40;19.30;86.40
10062;DHT22;5070;52.382;5.270;2023-11-19T05:32:09;19.30;86.20
10062;DHT22;5070;52.382;5.270;2023-11-19T05:34:38;19.30;86.20
10062;DHT22;5070;52.382;5.270;2023-11-19T05:37:19;19.30;86.10
10062;DHT22;5070;52.382;5.270;2023-11-19T05:39:47;19.30;85.90
10062;DHT22;5070;52.382;5.270;2023-11-19T05:42:16;19.30;85.80
10062;DHT22;5070;52.382;5.270;2023-11-19T05:44:44;19.30;85.80
10062;DHT22;5070;52.382;5.270;2023-11-19T05:47:12;19.30;85.70
10062;DHT22;5070;52.382;5.270;2023-11-19T05:49:40;19.30;85.70
10062;DHT22;5070;52.382;5.270;2023-11-19T05:52:07;19.20;85.70
10062;DHT22;5070;52.382;5.270;2023-11-19T05:54:38;19.20;85.50
10062;DHT22;5070;52.382;5.270;2023-11-19T05:57:07;19.20;85.40
10062;DHT22;5070;52.382;5.270;2023-11-19T05:59:36;19.20;85.30
10062;DHT22;5070;52.382;5.270;2023-11-19T06:02:04;19.20;85.30
10062;DHT22;5070;52.382;5.270;2023-11-19T06:04:32;19.20;85.30
10062;DHT22;5070;52.382;5.270;2023-11-19T06:07:00;19.20;85.30
10062;DHT22;5070;52.382;5.270;2023-11-19T06:09:28;19.20;85.10
10062;DHT22;5070;52.382;5.270;2023-11-19T06:11:57;19.20;85.80
10062;DHT22;5070;52.382;5.270;2023-11-19T06:14:28;19.20;85.60
10062;DHT22;5070;52.382;5.270;2023-11-19T06:16:56;19.20;85.70
10062;DHT22;5070;52.382;5.270;2023-11-19T06:19:24;19.20;84.80
10062;DHT22;5070;52.382;5.270;2023-11-19T06:21:56;19.20;84.80
10062;DHT22;5070;52.382;5.270;2023-11-19T06:24:24;19.20;84.70
10062;DHT22;5070;52.382;5.270;2023-11-19T06:26:52;19.20;84.70
10062;DHT22;5070;52.382;5.270;2023-11-19T06:29:22;19.10;84.70
10062;DHT22;5070;52.382;5.270;2023-11-19T06:31:50;19.20;84.70
10062;DHT22;5070;52.382;5.270;2023-11-19T06:34:18;19.10;84.70
10062;DHT22;5070;52.382;5.270;2023-11-19T06:36:46;19.20;84.60
10062;DHT22;5070;52.382;5.270;2023-11-19T06:39:15;19.20;84.50
10062;DHT22;5070;52.382;5.270;2023-11-19T06:41:47;19.20;84.30
10062;DHT22;5070;52.382;5.270;2023-11-19T06:44:15;19.10;84.30
10062;DHT22;5070;52.382;5.270;2023-11-19T06:46:45;19.10;84.30
10062;DHT22;5070;52.382;5.270;2023-11-19T06:49:13;19.10;84.30
10062;DHT22;5070;52.382;5.270;2023-11-19T06:51:42;19.10;84.30
10062;DHT22;5070;52.382;5.270;2023-11-19T06:54:10;19.10;84.30
10062;DHT22;5070;52.382;5.270;2023-11-19T06:56:39;19.10;84.30
10062;DHT22;5070;52.382;5.270;2023-11-19T06:59:09;19.10;84.10
10062;DHT22;5070;52.382;5.270;2023-11-19T07:01:37;19.10;84.10
10062;DHT22;5070;52.382;5.270;2023-11-19T07:04:06;19.10;84.10
10062;DHT22;5070;52.382;5.270;2023-11-19T07:06:36;19.10;84.10
10062;DHT22;5070;52.382;5.270;2023-11-19T07:09:04;19.10;84.00
10062;DHT22;5070;52.382;5.270;2023-11-19T07:11:37;19.10;84.30
10062;DHT22;5070;52.382;5.270;2023-11-19T07:14:06;19.00;84.20
10062;DHT22;5070;52.382;5.270;2023-11-19T07:16:34;19.10;84.30
10062;DHT22;5070;52.382;5.270;2023-11-19T07:19:04;19.00;84.20
10062;DHT22;5070;52.382;5.270;2023-11-19T07:21:34;19.00;84.40
10062;DHT22;5070;52.382;5.270;2023-11-19T07:24:06;19.00;84.30
10062;DHT22;5070;52.382;5.270;2023-11-19T07:26:34;19.00;84.20
10062;DHT22;5070;52.382;5.270;2023-11-19T07:29:02;19.00;84.10
10062;DHT22;5070;52.382;5.270;2023-11-19T07:31:34;19.00;84.10
10062;DHT22;5070;52.382;5.270;2023-11-19T07:34:02;19.00;84.10
10062;DHT22;5070;52.382;5.270;2023-11-19T07:36:30;19.00;84.10
10062;DHT22;5070;52.382;5.270;2023-11-19T07:39:00;19.00;84.10
10062;DHT22;5070;52.382;5.270;2023-11-19T07:41:28;19.00;84.10
10062;DHT22;5070;52.382;5.270;2023-11-19T07:43:56;19.00;84.00
10062;DHT22;5070;52.382;5.270;2023-11-19T07:46:24;19.00;84.10
10062;DHT22;5070;52.382;5.270;2023-11-19T07:48:52;19.00;84.10
10062;DHT22;5070;52.382;5.270;2023-11-19T07:51:20;19.00;84.20
10062;DHT22;5070;52.382;5.270;2023-11-19T07:53:48;19.00;84.20
10062;DHT22;5070;52.382;5.270;2023-11-19T07:56:17;19.00;84.20
10062;DHT22;5070;52.382;5.270;2023-11-19T07:58:45;19.00;84.30
10062;DHT22;5070;52.382;5.270;2023-11-19T08:01:15;19.00;84.20
10062;DHT22;5070;52.382;5.270;2023-11-19T08:03:43;19.00;84.20
10062;DHT22;5070;52.382;5.270;2023-11-19T08:06:16;19.00;84.40
10062;DHT22;5070;52.382;5.270;2023-11-19T08:08:44;19.00;84.30
10062;DHT22;5070;52.382;5.270;2023-11-19T08:11:18;19.00;84.20
10062;DHT22;5070;52.382;5.270;2023-11-19T08:13:47;19.00;84.20
10062;DHT22;5070;52.382;5.270;2023-11-19T08:16:15;19.00;84.30
10062;DHT22;5070;52.382;5.270;2023-11-19T08:18:43;19.00;84.40
10062;DHT22;5070;52.382;5.270;2023-11-19T08:21:11;19.00;84.80
10062;DHT22;5070;52.382;5.270;2023-11-19T08:23:40;19.00;84.50
10062;DHT22;5070;52.382;5.270;2023-11-19T08:26:08;19.10;84.60
10062;DHT22;5070;52.382;5.270;2023-11-19T08:28:38;19.10;84.60
10062;DHT22;5070;52.382;5.270;2023-11-19T08:31:06;19.10;84.50
10062;DHT22;5070;52.382;5.270;2023-11-19T08:33:34;19.10;84.40
10062;DHT22;5070;52.382;5.270;2023-11-19T08:36:04;19.10;84.50
10062;DHT22;5070;52.382;5.270;2023-11-19T08:38:33;19.10;84.50
10062;DHT22;5070;52.382;5.270;2023-11-19T08:41:01;19.10;84.40
10062;DHT22;5070;52.382;5.270;2023-11-19T08:43:29;19.10;84.40
10062;DHT22;5070;52.382;5.270;2023-11-19T08:45:59;19.20;84.60
10062;DHT22;5070;52.382;5.270;2023-11-19T08:48:27;19.20;84.60
10062;DHT22;5070;52.382;5.270;2023-11-19T08:50:55;19.20;84.60
10062;DHT22;5070;52.382;5.270;2023-11-19T08:53:23;19.20;84.70
10062;DHT22;5070;52.382;5.270;2023-11-19T08:55:51;19.20;84.60
10062;DHT22;5070;52.382;5.270;2023-11-19T08:58:19;19.20;84.40
10062;DHT22;5070;52.382;5.270;2023-11-19T09:00:48;19.20;84.40
10062;DHT22;5070;52.382;5.270;2023-11-19T09:03:17;19.20;84.60
10062;DHT22;5070;52.382;5.270;2023-11-19T09:05:47;19.20;85.10
10062;DHT22;5070;52.382;5.270;2023-11-19T09:08:15;19.20;84.90
10062;DHT22;5070;52.382;5.270;2023-11-19T09:10:43;19.20;84.80
10062;DHT22;5070;52.382;5.270;2023-11-19T09:13:11;19.20;84.90
10062;DHT22;5070;52.382;5.270;2023-11-19T09:15:39;19.30;85.30
10062;DHT22;5070;52.382;5.270;2023-11-19T09:18:07;19.20;85.30
10062;DHT22;5070;52.382;5.270;2023-11-19T09:20:36;19.30;85.40
10062;DHT22;5070;52.382;5.270;2023-11-19T09:23:06;19.30;85.20
10062;DHT22;5070;52.382;5.270;2023-11-19T09:25:36;19.20;84.90
10062;DHT22;5070;52.382;5.270;2023-11-19T09:28:07;19.30;84.90
10062;DHT22;5070;52.382;5.270;2023-11-19T09:30:35;19.20;85.00
10062;DHT22;5070;52.382;5.270;2023-11-19T09:33:03;19.20;84.90
10062;DHT22;5070;52.382;5.270;2023-11-19T09:35:32;19.20;85.10
10062;DHT22;5070;52.382;5.270;2023-11-19T09:38:01;19.30;85.40
10062;DHT22;5070;52.382;5.270;2023-11-19T09:40:32;19.20;85.30
10062;DHT22;5070;52.382;5.270;2023-11-19T09:43:00;19.30;85.20
10062;DHT22;5070;52.382;5.270;2023-11-19T09:45:32;19.30;85.30
10062;DHT22;5070;52.382;5.270;2023-11-19T09:48:06;19.30;85.30
10062;DHT22;5070;52.382;5.270;2023-11-19T09:50:34;19.30;85.30
10062;DHT22;5070;52.382;5.270;2023-11-19T09:53:03;19.30;85.30
10062;DHT22;5070;52.382;5.270;2023-11-19T09:55:32;19.30;85.30
10062;DHT22;5070;52.382;5.270;2023-11-19T09:58:01;19.30;85.10
10062;DHT22;5070;52.382;5.270;2023-11-19T10:00:30;19.30;85.40
10062;DHT22;5070;52.382;5.270;2023-11-19T10:02:59;19.20;85.30
10062;DHT22;5070;52.382;5.270;2023-11-19T10:05:27;19.20;85.40
10062;DHT22;5070;52.382;5.270;2023-11-19T10:07:55;19.30;85.70
10062;DHT22;5070;52.382;5.270;2023-11-19T10:10:25;19.30;86.00
10062;DHT22;5070;52.382;5.270;2023-11-19T10:12:53;19.30;86.00
10062;DHT22;5070;52.382;5.270;2023-11-19T10:15:24;19.30;86.10
10062;DHT22;5070;52.382;5.270;2023-11-19T10:17:55;19.30;86.20
10062;DHT22;5070;52.382;5.270;2023-11-19T10:20:23;19.30;86.40
10062;DHT22;5070;52.382;5.270;2023-11-19T10:22:52;19.30;87.40
10062;DHT22;5070;52.382;5.270;2023-11-19T10:25:27;19.30;87.90
10062;DHT22;5070;52.382;5.270;2023-11-19T10:27:56;19.30;88.20
10062;DHT22;5070;52.382;5.270;2023-11-19T10:30:24;19.30;88.50
10062;DHT22;5070;52.382;5.270;2023-11-19T10:33:06;19.30;88.90
10062;DHT22;5070;52.382;5.270;2023-11-19T10:35:36;19.30;88.70
10062;DHT22;5070;52.382;5.270;2023-11-19T10:38:14;19.30;88.70
10062;DHT22;5070;52.382;5.270;2023-11-19T10:40:44;19.30;88.70
10062;DHT22;5070;52.382;5.270;2023-11-19T10:43:12;19.30;88.70
10062;DHT22;5070;52.382;5.270;2023-11-19T10:45:40;19.40;87.80
10062;DHT22;5070;52.382;5.270;2023-11-19T10:48:09;19.30;87.40
10062;DHT22;5070;52.382;5.270;2023-11-19T10:50:38;19.30;87.50
10062;DHT22;5070;52.382;5.270;2023-11-19T10:53:08;19.30;86.70
10062;DHT22;5070;52.382;5.270;2023-11-19T10:55:38;19.30;86.40
10062;DHT22;5070;52.382;5.270;2023-11-19T10:58:08;19.30;86.40
10062;DHT22;5070;52.382;5.270;2023-11-19T11:00:38;19.30;86.40
10062;DHT22;5070;52.382;5.270;2023-11-19T11:03:11;19.40;86.90
10062;DHT22;5070;52.382;5.270;2023-11-19T11:05:43;19.40;87.30
10062;DHT22;5070;52.382;5.270;2023-11-19T11:08:11;19.40;87.30
10062;DHT22;5070;52.382;5.270;2023-11-19T11:10:43;19.40;87.70
10062;DHT22;5070;52.382;5.270;2023-11-19T11:13:16;19.40;88.40
10062;DHT22;5070;52.382;5.270;2023-11-19T11:15:44;19.40;87.90
10062;DHT22;5070;52.382;5.270;2023-11-19T11:18:13;19.40;87.90
10062;DHT22;5070;52.382;5.270;2023-11-19T11:20:41;19.40;88.10
10062;DHT22;5070;52.382;5.270;2023-11-19T11:23:44;19.40;88.40
10062;DHT22;5070;52.382;5.270;2023-11-19T11:29:16;19.40;88.70
10062;DHT22;5070;52.382;5.270;2023-11-19T11:31:53;19.40;87.90
10062;DHT22;5070;52.382;5.270;2023-11-19T11:37:32;19.40;87.50
10062;DHT22;5070;52.382;5.270;2023-11-19T11:40:02;19.40;88.40
10062;DHT22;5070;52.382;5.270;2023-11-19T11:42:37;19.40;88.20
10062;DHT22;5070;52.382;5.270;2023-11-19T11:45:08;19.40;88.60
10062;DHT22;5070;52.382;5.270;2023-11-19T11:48:11;19.40;87.90
10062;DHT22;5070;52.382;5.270;2023-11-19T11:50:50;19.40;88.30
10062;DHT22;5070;52.382;5.270;2023-11-19T11:53:20;19.40;88.10
10062;DHT22;5070;52.382;5.270;2023-11-19T11:55:55;19.40;87.30
10062;DHT22;5070;52.382;5.270;2023-11-19T11:58:35;19.50;87.50
10062;DHT22;5070;52.382;5.270;2023-11-19T12:01:06;19.40;87.60
10062;DHT22;5070;52.382;5.270;2023-11-19T12:03:34;19.40;87.20
10062;DHT22;5070;52.382;5.270;2023-11-19T12:06:02;19.50;86.60
10062;DHT22;5070;52.382;5.270;2023-11-19T12:08:31;19.50;86.60
10062;DHT22;5070;52.382;5.270;2023-11-19T12:11:19;19.50;86.60
10062;DHT22;5070;52.382;5.270;2023-11-19T12:13:55;19.40;87.00
10062;DHT22;5070;52.382;5.270;2023-11-19T12:16:27;19.40;87.40
10062;DHT22;5070;52.382;5.270;2023-11-19T12:18:56;19.50;87.20
10062;DHT22;5070;52.382;5.270;2023-11-19T12:21:28;19.40;87.20
10062;DHT22;5070;52.382;5.270;2023-11-19T12:23:58;19.40;87.30
10062;DHT22;5070;52.382;5.270;2023-11-19T12:26:35;19.40;87.30
10062;DHT22;5070;52.382;5.270;2023-11-19T12:29:03;19.40;87.60
10062;DHT22;5070;52.382;5.270;2023-11-19T12:31:36;19.40;87.90
10062;DHT22;5070;52.382;5.270;2023-11-19T12:34:09;19.40;87.60
10062;DHT22;5070;52.382;5.270;2023-11-19T12:36:40;19.50;87.90
10062;DHT22;5070;52.382;5.270;2023-11-19T12:39:10;19.50;88.30
10062;DHT22;5070;52.382;5.270;2023-11-19T12:41:52;19.50;89.60
10062;DHT22;5070;52.382;5.270;2023-11-19T12:44:21;19.50;89.10
10062;DHT22;5070;52.382;5.270;2023-11-19T12:47:01;19.50;89.80
10062;DHT22;5070;52.382;5.270;2023-11-19T12:49:30;19.50;90.20
10062;DHT22;5070;52.382;5.270;2023-11-19T12:51:58;19.50;90.40
10062;DHT22;5070;52.382;5.270;2023-11-19T12:54:34;19.50;90.70
10062;DHT22;5070;52.382;5.270;2023-11-19T12:57:03;19.50;90.60
10062;DHT22;5070;52.382;5.270;2023-11-19T12:59:31;19.50;90.80
10062;DHT22;5070;52.382;5.270;2023-11-19T13:02:01;19.50;90.90
10062;DHT22;5070;52.382;5.270;2023-11-19T13:04:34;19.60;91.10
10062;DHT22;5070;52.382;5.270;2023-11-19T13:07:02;19.50;91.40
10062;DHT22;5070;52.382;5.270;2023-11-19T13:09:32;19.50;91.40
10062;DHT22;5070;52.382;5.270;2023-11-19T13:12:12;19.60;91.50
10062;DHT22;5070;52.382;5.270;2023-11-19T13:14:41;19.60;91.70
10062;DHT22;5070;52.382;5.270;2023-11-19T13:17:14;19.60;91.70
10062;DHT22;5070;52.382;5.270;2023-11-19T13:19:42;19.60;92.00
10062;DHT22;5070;52.382;5.270;2023-11-19T13:22:10;19.60;91.80
10062;DHT22;5070;52.382;5.270;2023-11-19T13:24:38;19.60;91.70
10062;DHT22;5070;52.382;5.270;2023-11-19T13:27:07;19.60;91.40
10062;DHT22;5070;52.382;5.270;2023-11-19T13:29:35;19.60;91.60
10062;DHT22;5070;52.382;5.270;2023-11-19T13:32:03;19.60;91.60
10062;DHT22;5070;52.382;5.270;2023-11-19T13:34:33;19.60;90.80
10062;DHT22;5070;52.382;5.270;2023-11-19T13:37:02;19.60;91.00
10062;DHT22;5070;52.382;5.270;2023-11-19T13:39:30;19.60;91.10
10062;DHT22;5070;52.382;5.270;2023-11-19T13:41:59;19.60;91.10
10062;DHT22;5070;52.382;5.270;2023-11-19T13:44:30;19.60;91.00
10062;DHT22;5070;52.382;5.270;2023-11-19T13:46:58;19.60;91.10
10062;DHT22;5070;52.382;5.270;2023-11-19T13:49:26;19.60;91.10
10062;DHT22;5070;52.382;5.270;2023-11-19T13:51:56;19.60;91.10
10062;DHT22;5070;52.382;5.270;2023-11-19T13:54:24;19.60;91.40
10062;DHT22;5070;52.382;5.270;2023-11-19T13:56:55;19.60;91.60
10062;DHT22;5070;52.382;5.270;2023-11-19T13:59:24;19.60;91.20
10062;DHT22;5070;52.382;5.270;2023-11-19T14:01:52;19.60;91.20
10062;DHT22;5070;52.382;5.270;2023-11-19T14:04:20;19.60;91.50
10062;DHT22;5070;52.382;5.270;2023-11-19T14:06:49;19.60;91.10
10062;DHT22;5070;52.382;5.270;2023-11-19T14:09:18;19.70;91.40
10062;DHT22;5070;52.382;5.270;2023-11-19T14:11:46;19.70;91.60
10062;DHT22;5070;52.382;5.270;2023-11-19T14:14:16;19.70;91.70
10062;DHT22;5070;52.382;5.270;2023-11-19T14:16:44;19.70;91.30
10062;DHT22;5070;52.382;5.270;2023-11-19T14:19:12;19.70;91.10
10062;DHT22;5070;52.382;5.270;2023-11-19T14:21:40;19.70;91.50
10062;DHT22;5070;52.382;5.270;2023-11-19T14:24:08;19.70;91.50
10062;DHT22;5070;52.382;5.270;2023-11-19T14:26:38;19.70;91.60
10062;DHT22;5070;52.382;5.270;2023-11-19T14:29:06;19.70;91.60
10062;DHT22;5070;52.382;5.270;2023-11-19T14:31:34;19.70;90.60
10062;DHT22;5070;52.382;5.270;2023-11-19T14:34:02;19.70;90.70
10062;DHT22;5070;52.382;5.270;2023-11-19T14:36:30;19.70;91.00
10062;DHT22;5070;52.382;5.270;2023-11-19T14:38:58;19.70;91.20
10062;DHT22;5070;52.382;5.270;2023-11-19T14:41:26;19.70;91.30
10062;DHT22;5070;52.382;5.270;2023-11-19T14:43:55;19.70;91.20
10062;DHT22;5070;52.382;5.270;2023-11-19T14:46:23;19.70;91.00
10062;DHT22;5070;52.382;5.270;2023-11-19T14:48:51;19.70;91.00
10062;DHT22;5070;52.382;5.270;2023-11-19T14:51:19;19.70;91.00
10062;DHT22;5070;52.382;5.270;2023-11-19T14:53:48;19.70;90.80
10062;DHT22;5070;52.382;5.270;2023-11-19T14:56:16;19.70;90.70
10062;DHT22;5070;52.382;5.270;2023-11-19T14:58:44;19.70;90.60
10062;DHT22;5070;52.382;5.270;2023-11-19T15:01:13;19.70;90.50
10062;DHT22;5070;52.382;5.270;2023-11-19T15:03:42;19.70;90.50
10062;DHT22;5070;52.382;5.270;2023-11-19T15:06:13;19.70;90.50
10062;DHT22;5070;52.382;5.270;2023-11-19T15:08:41;19.70;90.40
10062;DHT22;5070;52.382;5.270;2023-11-19T15:11:11;19.60;90.30
10062;DHT22;5070;52.382;5.270;2023-11-19T15:13:39;19.70;90.20
10062;DHT22;5070;52.382;5.270;2023-11-19T15:16:08;19.60;90.20
10062;DHT22;5070;52.382;5.270;2023-11-19T15:18:40;19.60;90.00
10062;DHT22;5070;52.382;5.270;2023-11-19T15:21:08;19.60;90.00
10062;DHT22;5070;52.382;5.270;2023-11-19T15:23:36;19.60;90.10
10062;DHT22;5070;52.382;5.270;2023-11-19T15:26:04;19.60;90.00
10062;DHT22;5070;52.382;5.270;2023-11-19T15:28:34;19.60;89.90
10062;DHT22;5070;52.382;5.270;2023-11-19T15:31:02;19.60;89.90
10062;DHT22;5070;52.382;5.270;2023-11-19T15:33:31;19.60;89.70
10062;DHT22;5070;52.382;5.270;2023-11-19T15:36:00;19.60;89.40
10062;DHT22;5070;52.382;5.270;2023-11-19T15:38:30;19.60;89.70
10062;DHT22;5070;52.382;5.270;2023-11-19T15:40:58;19.60;89.70
10062;DHT22;5070;52.382;5.270;2023-11-19T15:43:26;19.60;89.90
10062;DHT22;5070;52.382;5.270;2023-11-19T15:45:54;19.60;90.00
10062;DHT22;5070;52.382;5.270;2023-11-19T15:48:22;19.60;90.30
10062;DHT22;5070;52.382;5.270;2023-11-19T15:50:51;19.60;90.30
10062;DHT22;5070;52.382;5.270;2023-11-19T15:53:22;19.60;90.50
10062;DHT22;5070;52.382;5.270;2023-11-19T15:55:50;19.60;90.30
10062;DHT22;5070;52.382;5.270;2023-11-19T15:58:19;19.60;90.40
10062;DHT22;5070;52.382;5.270;2023-11-19T16:00:49;19.60;90.40
10062;DHT22;5070;52.382;5.270;2023-11-19T16:03:17;19.60;90.20
10062;DHT22;5070;52.382;5.270;2023-11-19T16:05:45;19.60;90.10